createdAt,value
2023-03-17T00:02:03.699Z,32.35
2023-03-17T00:04:33.418Z,28.70
2023-03-17T00:07:02.495Z,29.00
2023-03-17T00:09:31.773Z,30.33
2023-03-17T00:12:01.029Z,29.63
2023-03-17T00:14:30.954Z,27.80
2023-03-17T00:17:00.020Z,29.02
2023-03-17T00:19:34.301Z,30.30
2023-03-17T00:22:06.674Z,30.92
2023-03-17T00:24:36.441Z,33.55
2023-03-17T00:27:13.327Z,26.97
2023-03-17T00:29:42.696Z,34.15
2023-03-17T00:32:18.593Z,29.58
2023-03-17T00:34:49.388Z,33.25
2023-03-17T00:37:18.460Z,29.23
2023-03-17T00:39:47.737Z,34.85
2023-03-17T00:42:17.516Z,26.60
2023-03-17T00:44:47.358Z,26.95
2023-03-17T00:47:16.455Z,30.23
2023-03-17T00:49:46.598Z,30.27
2023-03-17T00:52:17.022Z,31.45
2023-03-17T00:54:46.910Z,29.02
2023-03-17T00:57:15.985Z,25.75
2023-03-17T00:59:45.454Z,26.47
2023-03-17T01:02:14.945Z,26.30
2023-03-17T01:04:49.949Z,30.02
2023-03-17T01:07:24.284Z,26.95
2023-03-17T01:09:53.764Z,28.13
2023-03-17T01:12:22.781Z,25.33
2023-03-17T01:14:52.748Z,27.80
2023-03-17T01:17:23.065Z,26.60
2023-03-17T01:19:52.798Z,31.17
2023-03-17T01:22:23.569Z,23.77
2023-03-17T01:24:53.021Z,28.90
2023-03-17T01:27:22.041Z,25.17
2023-03-17T01:29:54.577Z,25.17
2023-03-17T01:32:23.744Z,25.45
2023-03-17T01:34:53.532Z,26.55
2023-03-17T01:37:23.980Z,25.25
2023-03-17T01:39:53.932Z,26.65
2023-03-17T01:42:23.056Z,26.90
2023-03-17T01:45:00.842Z,22.05
2023-03-17T01:47:31.986Z,24.63
2023-03-17T01:50:06.382Z,25.70
2023-03-17T01:52:39.713Z,23.25
2023-03-17T01:55:13.237Z,29.55
2023-03-17T01:57:45.643Z,25.55
2023-03-17T02:00:18.044Z,23.88
2023-03-17T02:02:48.905Z,27.00
2023-03-17T02:05:23.060Z,31.00
2023-03-17T02:07:53.941Z,25.95
2023-03-17T02:10:30.303Z,29.35
2023-03-17T02:13:03.951Z,30.90
2023-03-17T02:15:41.450Z,27.75
2023-03-17T02:18:11.616Z,30.58
2023-03-17T02:23:45.869Z,29.67
2023-03-17T02:26:15.461Z,28.25
2023-03-17T02:28:46.092Z,27.63
2023-03-17T02:31:16.528Z,31.15
2023-03-17T02:33:46.065Z,32.28
2023-03-17T02:36:15.753Z,33.90
2023-03-17T02:38:48.795Z,32.70
2023-03-17T02:41:18.294Z,34.75
2023-03-17T02:43:47.679Z,29.95
2023-03-17T02:46:17.477Z,33.47
2023-03-17T02:48:47.615Z,29.25
2023-03-17T02:53:47.139Z,29.70
2023-03-17T02:56:16.851Z,28.05
2023-03-17T02:58:46.507Z,25.23
2023-03-17T03:01:16.714Z,25.67
2023-03-17T03:03:45.986Z,22.42
2023-03-17T03:06:16.396Z,21.65
2023-03-17T03:08:46.138Z,25.27
2023-03-17T03:11:16.834Z,25.38
2023-03-17T03:16:16.114Z,23.60
2023-03-17T03:18:45.121Z,24.73
2023-03-17T03:21:14.586Z,25.73
2023-03-17T03:23:43.832Z,25.95
2023-03-17T03:26:13.124Z,25.55
2023-03-17T03:28:43.680Z,23.92
2023-03-17T03:31:13.941Z,24.42
2023-03-17T03:33:43.986Z,28.42
2023-03-17T03:36:13.454Z,29.90
2023-03-17T03:38:42.766Z,24.75
2023-03-17T03:41:13.105Z,23.75
2023-03-17T03:43:43.528Z,24.02
2023-03-17T03:46:12.911Z,22.13
2023-03-17T03:48:41.878Z,25.13
2023-03-17T03:51:11.240Z,24.13
2023-03-17T03:53:40.389Z,19.10
2023-03-17T03:56:10.018Z,20.15
2023-03-17T03:58:39.116Z,18.92
2023-03-17T04:01:10.716Z,14.87
2023-03-17T04:03:40.184Z,17.52
2023-03-17T04:06:09.528Z,22.52
2023-03-17T04:08:38.534Z,19.35
2023-03-17T04:11:08.767Z,26.58
2023-03-17T04:13:38.457Z,22.73
2023-03-17T04:16:09.874Z,28.08
2023-03-17T04:18:39.002Z,25.15
2023-03-17T04:21:08.650Z,22.80
2023-03-17T04:23:37.666Z,21.70
2023-03-17T04:26:07.434Z,24.13
2023-03-17T04:28:36.486Z,28.58
2023-03-17T04:31:06.411Z,25.55
2023-03-17T04:33:36.904Z,32.83
2023-03-17T04:36:07.763Z,30.27
2023-03-17T04:38:36.859Z,27.55
2023-03-17T04:41:06.320Z,32.03
2023-03-17T04:43:35.343Z,28.42
2023-03-17T04:46:04.883Z,30.40
2023-03-17T04:48:35.308Z,31.65
2023-03-17T04:51:05.096Z,35.05
2023-03-17T04:53:34.165Z,42.92
2023-03-17T04:56:03.492Z,36.55
2023-03-17T04:58:32.579Z,35.85
2023-03-17T05:01:02.607Z,38.40
2023-03-17T05:03:31.764Z,46.17
2023-03-17T05:06:03.191Z,44.00
2023-03-17T05:08:32.820Z,47.80
2023-03-17T05:11:02.297Z,47.40
2023-03-17T05:13:31.447Z,51.47
2023-03-17T05:16:01.550Z,60.23
2023-03-17T05:18:30.811Z,49.20
2023-03-17T05:21:01.641Z,49.22
2023-03-17T05:23:30.738Z,53.55
2023-03-17T05:26:00.157Z,51.13
2023-03-17T05:28:29.262Z,47.30
2023-03-17T05:30:58.793Z,48.72
2023-03-17T05:33:28.940Z,44.60
2023-03-17T05:35:58.509Z,43.60
2023-03-17T05:38:29.705Z,40.35
2023-03-17T05:40:59.048Z,47.25
2023-03-17T05:43:28.087Z,50.67
2023-03-17T05:45:57.547Z,45.70
2023-03-17T05:48:26.593Z,48.90
2023-03-17T05:50:55.981Z,52.03
2023-03-17T05:53:25.269Z,48.40
2023-03-17T05:55:56.897Z,45.45
2023-03-17T05:58:26.979Z,44.72
2023-03-17T06:00:57.000Z,41.65
2023-03-17T06:03:26.212Z,46.58
2023-03-17T06:05:55.756Z,43.50
2023-03-17T06:08:24.797Z,42.37
2023-03-17T06:10:55.564Z,40.42
2023-03-17T06:13:24.585Z,43.58
2023-03-17T06:15:53.854Z,41.67
2023-03-17T06:18:22.960Z,44.90
2023-03-17T06:20:52.259Z,40.10
2023-03-17T06:23:21.717Z,39.67
2023-03-17T06:25:51.082Z,42.10
2023-03-17T06:28:21.470Z,43.40
2023-03-17T06:30:51.129Z,41.30
2023-03-17T06:33:20.247Z,41.10
2023-03-17T06:35:49.578Z,41.28
2023-03-17T06:38:18.946Z,41.75
2023-03-17T06:40:48.335Z,40.85
2023-03-17T06:43:17.558Z,40.97
2023-03-17T06:45:48.569Z,39.78
2023-03-17T06:48:17.924Z,36.20
2023-03-17T06:50:49.104Z,35.45
2023-03-17T06:53:18.249Z,36.25
2023-03-17T06:55:48.247Z,38.10
2023-03-17T06:58:17.303Z,34.53
2023-03-17T07:00:48.943Z,41.55
2023-03-17T07:03:18.127Z,38.38
2023-03-17T07:05:47.785Z,36.03
2023-03-17T07:08:17.914Z,33.83
2023-03-17T07:10:47.352Z,36.28
2023-03-17T07:13:16.331Z,35.42
2023-03-17T07:15:48.306Z,37.17
2023-03-17T07:18:17.447Z,33.88
2023-03-17T07:20:46.865Z,38.22
2023-03-17T07:23:23.437Z,35.97
2023-03-17T07:25:52.836Z,35.50
2023-03-17T07:28:21.867Z,36.45
2023-03-17T07:30:53.118Z,36.67
2023-03-17T07:33:22.452Z,35.17
2023-03-17T07:35:52.520Z,39.53
2023-03-17T07:38:22.220Z,43.80
2023-03-17T07:40:53.023Z,37.92
2023-03-17T07:43:22.620Z,34.90
2023-03-17T07:45:53.379Z,36.17
2023-03-17T07:48:22.619Z,31.05
2023-03-17T07:50:52.353Z,33.87
2023-03-17T07:53:21.399Z,35.47
2023-03-17T07:55:50.750Z,36.88
2023-03-17T07:58:20.280Z,34.60
2023-03-17T08:00:49.987Z,36.88
2023-03-17T08:03:20.447Z,34.07
2023-03-17T08:05:55.357Z,35.20
2023-03-17T08:08:24.996Z,35.35
2023-03-17T08:10:54.649Z,39.15
2023-03-17T08:13:24.719Z,33.92
2023-03-17T08:18:24.819Z,34.65
2023-03-17T08:20:54.197Z,31.50
2023-03-17T08:23:23.529Z,35.05
2023-03-17T08:25:57.119Z,35.30
2023-03-17T08:28:26.259Z,35.38
2023-03-17T08:30:55.892Z,35.37
2023-03-17T08:33:26.354Z,29.50
2023-03-17T08:35:55.911Z,31.67
2023-03-17T08:38:24.911Z,32.35
2023-03-17T08:40:54.254Z,32.67
2023-03-17T08:43:23.984Z,27.77
2023-03-17T08:45:53.996Z,31.83
2023-03-17T08:48:23.152Z,35.13
2023-03-17T08:50:53.823Z,33.77
2023-03-17T08:53:22.874Z,29.95
2023-03-17T08:55:55.726Z,33.22
2023-03-17T08:58:25.129Z,28.83
2023-03-17T09:00:55.158Z,29.48
2023-03-17T09:03:24.189Z,26.45
2023-03-17T09:05:55.070Z,34.65
2023-03-17T09:08:24.329Z,27.65
2023-03-17T09:10:54.252Z,31.10
2023-03-17T09:13:23.788Z,30.55
2023-03-17T09:15:53.251Z,29.58
2023-03-17T09:18:22.282Z,28.58
2023-03-17T09:20:52.895Z,30.52
2023-03-17T09:25:53.377Z,23.90
2023-03-17T09:28:22.403Z,30.00
2023-03-17T09:30:52.845Z,24.73
2023-03-17T09:33:22.639Z,29.73
2023-03-17T09:35:57.030Z,28.52
2023-03-17T09:38:27.480Z,29.13
2023-03-17T09:41:04.561Z,25.30
2023-03-17T09:43:45.084Z,35.22
2023-03-17T09:46:36.099Z,31.02
2023-03-17T09:49:10.747Z,30.98
2023-03-17T09:51:43.194Z,26.83
2023-03-17T09:54:18.426Z,30.73
2023-03-17T09:56:52.168Z,26.52
2023-03-17T09:59:31.386Z,24.98
2023-03-17T10:02:01.019Z,28.37
2023-03-17T10:04:30.113Z,25.40
2023-03-17T10:07:05.111Z,26.25
2023-03-17T10:09:40.207Z,28.30
2023-03-17T10:12:16.695Z,24.98
2023-03-17T10:14:59.515Z,26.52
2023-03-17T10:17:33.454Z,25.75
2023-03-17T10:20:08.342Z,22.00
2023-03-17T10:22:42.795Z,19.65
2023-03-17T10:25:17.850Z,21.58
2023-03-17T10:27:52.317Z,21.52
2023-03-17T10:30:23.563Z,20.23
2023-03-17T10:32:53.745Z,21.77
2023-03-17T10:35:25.616Z,21.45
2023-03-17T10:38:11.835Z,22.38
2023-03-17T10:40:45.364Z,17.67
2023-03-17T10:43:20.699Z,18.15
2023-03-17T10:46:00.258Z,19.50
2023-03-17T10:48:32.196Z,14.48
2023-03-17T10:51:01.206Z,18.52
2023-03-17T10:53:43.064Z,17.60
2023-03-17T10:56:24.522Z,16.63
2023-03-17T10:58:57.006Z,17.98
2023-03-17T11:01:31.300Z,18.75
2023-03-17T11:04:02.690Z,18.48
2023-03-17T11:06:38.103Z,18.42
2023-03-17T11:09:12.544Z,16.67
2023-03-17T11:11:46.999Z,17.48
2023-03-17T11:14:18.715Z,17.27
2023-03-17T11:16:54.783Z,17.75
2023-03-17T11:19:33.400Z,14.27
2023-03-17T11:22:11.647Z,15.50
2023-03-17T11:24:51.362Z,15.80
2023-03-17T11:27:30.430Z,13.90
2023-03-17T11:30:16.847Z,12.30
2023-03-17T11:32:53.266Z,15.50
2023-03-17T11:35:43.455Z,15.00
2023-03-17T11:38:24.420Z,16.63
2023-03-17T11:41:28.288Z,17.45
2023-03-17T11:44:24.123Z,23.10
2023-03-17T11:47:01.105Z,18.08
2023-03-17T11:49:37.077Z,19.20
2023-03-17T11:52:13.427Z,16.08
2023-03-17T11:54:55.982Z,19.50
2023-03-17T11:57:33.011Z,18.70
2023-03-17T12:00:07.074Z,20.00
2023-03-17T12:02:44.728Z,17.45
2023-03-17T12:05:17.731Z,16.38
2023-03-17T12:07:53.267Z,20.58
2023-03-17T12:10:26.319Z,18.92
2023-03-17T12:13:02.364Z,14.43
2023-03-17T12:15:36.288Z,18.73
2023-03-17T12:18:13.307Z,17.45
2023-03-17T12:20:50.963Z,20.13
2023-03-17T12:23:29.914Z,21.05
2023-03-17T12:26:03.814Z,20.67
2023-03-17T12:28:42.417Z,22.42
2023-03-17T12:31:18.395Z,20.73
2023-03-17T12:33:53.588Z,20.17
2023-03-17T12:36:23.728Z,19.20
2023-03-17T12:38:57.784Z,16.88
2023-03-17T12:41:40.116Z,22.02
2023-03-17T12:44:24.050Z,22.33
2023-03-17T12:47:27.950Z,22.48
2023-03-17T12:50:43.700Z,20.75
2023-03-17T12:53:30.452Z,22.63
2023-03-17T12:56:07.537Z,26.30
2023-03-17T12:58:41.893Z,22.60
2023-03-17T13:01:24.210Z,22.45
2023-03-17T13:04:15.832Z,21.30
2023-03-17T13:06:48.179Z,19.00
2023-03-17T13:09:47.250Z,20.15
2023-03-17T13:12:53.032Z,17.77
2023-03-17T13:15:56.113Z,21.40
2023-03-17T13:18:49.472Z,19.25
2023-03-17T13:21:24.972Z,19.58
2023-03-17T13:24:16.705Z,17.38
2023-03-17T13:26:55.345Z,16.67
2023-03-17T13:29:28.013Z,18.20
2023-03-17T13:32:29.316Z,17.55
2023-03-17T13:35:22.221Z,17.52
2023-03-17T13:38:20.783Z,18.20
2023-03-17T13:41:02.062Z,17.80
2023-03-17T13:43:57.783Z,21.17
2023-03-17T13:46:41.350Z,17.90
2023-03-17T13:49:25.613Z,18.50
2023-03-17T13:52:00.440Z,18.83
2023-03-17T13:54:41.718Z,17.88
2023-03-17T13:57:27.323Z,20.67
2023-03-17T14:00:03.081Z,21.73
2023-03-17T14:02:37.880Z,17.98
2023-03-17T14:05:09.866Z,18.25
2023-03-17T14:07:48.032Z,14.98
2023-03-17T14:10:22.414Z,21.23
2023-03-17T14:12:58.719Z,19.05
2023-03-17T14:15:33.941Z,19.40
2023-03-17T14:18:09.587Z,17.40
2023-03-17T14:20:38.730Z,16.65
2023-03-17T14:23:10.404Z,15.55
2023-03-17T14:25:43.100Z,18.20
2023-03-17T14:28:18.176Z,15.02
2023-03-17T14:30:54.969Z,15.18
2023-03-17T14:33:26.920Z,14.32
2023-03-17T14:35:59.064Z,18.42
2023-03-17T14:38:30.510Z,17.55
2023-03-17T14:41:05.684Z,19.20
2023-03-17T14:43:37.838Z,18.65
2023-03-17T14:46:08.766Z,17.98
2023-03-17T14:48:41.471Z,14.73
2023-03-17T14:51:23.864Z,17.75
2023-03-17T14:53:55.115Z,14.70
2023-03-17T14:56:30.627Z,19.80
2023-03-17T14:59:07.944Z,14.77
2023-03-17T15:01:39.780Z,16.40
2023-03-17T15:04:13.208Z,19.35
2023-03-17T15:06:51.206Z,14.40
2023-03-17T15:09:25.862Z,14.63
2023-03-17T15:12:02.349Z,18.55
2023-03-17T15:14:34.715Z,14.57
2023-03-17T15:17:05.699Z,18.52
2023-03-17T15:19:41.995Z,17.95
2023-03-17T15:22:25.848Z,16.75
2023-03-17T15:25:01.784Z,18.30
2023-03-17T15:27:33.252Z,18.65
2023-03-17T15:30:03.220Z,16.23
2023-03-17T15:32:32.412Z,18.63
2023-03-17T15:35:01.802Z,12.95
2023-03-17T15:37:32.761Z,17.30
2023-03-17T15:40:05.480Z,12.32
2023-03-17T15:42:37.489Z,16.67
2023-03-17T15:45:08.502Z,13.93
2023-03-17T15:47:40.076Z,13.93
2023-03-17T15:50:17.905Z,16.50
2023-03-17T15:52:47.604Z,16.30
2023-03-17T15:55:20.926Z,18.80
2023-03-17T15:57:55.257Z,13.43
2023-03-17T16:00:26.606Z,13.93
2023-03-17T16:02:58.084Z,18.80
2023-03-17T16:05:29.418Z,13.82
2023-03-17T16:07:58.771Z,18.05
2023-03-17T16:10:30.589Z,16.92
2023-03-17T16:13:01.389Z,17.73
2023-03-17T16:15:35.193Z,13.77
2023-03-17T16:18:07.555Z,15.65
2023-03-17T16:20:40.573Z,15.40
2023-03-17T16:23:15.552Z,19.25
2023-03-17T16:25:45.759Z,16.17
2023-03-17T16:28:20.314Z,18.85
2023-03-17T16:30:51.600Z,18.45
2023-03-17T16:33:22.996Z,20.48
2023-03-17T16:35:53.603Z,16.58
2023-03-17T16:38:24.967Z,15.90
2023-03-17T16:40:56.070Z,18.52
2023-03-17T16:43:29.437Z,16.02
2023-03-17T16:46:00.931Z,15.23
2023-03-17T16:48:31.074Z,15.35
2023-03-17T16:51:00.835Z,15.35
2023-03-17T16:53:29.827Z,17.35
2023-03-17T16:55:59.454Z,14.50
2023-03-17T16:58:33.633Z,15.65
2023-03-17T17:01:07.645Z,15.20
2023-03-17T17:03:37.905Z,16.23
2023-03-17T17:06:08.805Z,16.90
2023-03-17T17:08:37.884Z,16.45
2023-03-17T17:11:07.752Z,17.80
2023-03-17T17:13:38.975Z,16.98
2023-03-17T17:16:13.014Z,20.15
2023-03-17T17:18:42.134Z,17.85
2023-03-17T17:21:11.432Z,17.23
2023-03-17T17:23:40.450Z,17.35
2023-03-17T17:26:09.793Z,17.07
2023-03-17T17:28:40.432Z,15.40
2023-03-17T17:31:10.774Z,18.00
2023-03-17T17:33:40.402Z,18.25
2023-03-17T17:36:15.664Z,17.10
2023-03-17T17:38:45.392Z,18.20
2023-03-17T17:41:17.002Z,16.58
2023-03-17T17:43:47.757Z,16.58
2023-03-17T17:46:19.371Z,20.60
2023-03-17T17:48:48.890Z,23.25
2023-03-17T17:51:18.319Z,19.98
2023-03-17T17:53:47.386Z,16.55
2023-03-17T17:56:18.631Z,17.33
2023-03-17T17:58:51.305Z,19.65
2023-03-17T18:01:22.661Z,19.42
2023-03-17T18:03:52.016Z,25.65
2023-03-17T18:06:21.484Z,20.70
2023-03-17T18:08:51.572Z,18.27
2023-03-17T18:11:20.986Z,20.02
2023-03-17T18:13:51.542Z,20.90
2023-03-17T18:16:21.216Z,19.38
2023-03-17T18:18:50.740Z,27.53
2023-03-17T18:21:20.106Z,20.27
2023-03-17T18:23:50.076Z,21.60
2023-03-17T18:28:51.450Z,28.58
2023-03-17T18:31:23.895Z,25.38
2023-03-17T18:33:57.889Z,23.13
2023-03-17T18:36:28.701Z,20.58
2023-03-17T18:38:58.366Z,25.08
2023-03-17T18:41:28.318Z,31.83
2023-03-17T18:43:58.849Z,24.98
2023-03-17T18:46:28.244Z,29.42
2023-03-17T18:48:57.291Z,35.15
2023-03-17T18:51:26.715Z,31.80
2023-03-17T18:53:56.140Z,21.85
2023-03-17T18:56:29.036Z,22.67
2023-03-17T18:59:00.609Z,27.08
2023-03-17T19:01:30.097Z,23.20
2023-03-17T19:03:59.150Z,22.85
2023-03-17T19:06:28.475Z,29.10
2023-03-17T19:08:57.998Z,27.20
2023-03-17T19:11:27.310Z,29.80
2023-03-17T19:13:56.489Z,26.95
2023-03-17T19:16:28.969Z,24.17
2023-03-17T19:18:58.769Z,27.10
2023-03-17T19:21:28.608Z,24.90
2023-03-17T19:24:01.892Z,24.10
2023-03-17T19:26:33.399Z,23.95
2023-03-17T19:29:02.567Z,25.90
2023-03-17T19:31:41.177Z,27.85
2023-03-17T19:34:11.707Z,26.15
2023-03-17T19:36:42.821Z,27.85
2023-03-17T19:39:13.972Z,33.63
2023-03-17T19:41:43.323Z,30.65
2023-03-17T19:44:12.456Z,30.92
2023-03-17T19:46:43.184Z,27.13
2023-03-17T19:51:42.508Z,25.92
2023-03-17T19:54:11.967Z,25.17
2023-03-17T19:56:41.361Z,25.58
2023-03-17T19:59:10.432Z,21.58
2023-03-17T20:01:40.210Z,25.45
2023-03-17T20:04:17.509Z,23.35
2023-03-17T20:06:47.648Z,25.88
2023-03-17T20:09:17.043Z,27.83
2023-03-17T20:11:46.979Z,25.10
2023-03-17T20:14:16.204Z,22.45
2023-03-17T20:16:45.506Z,23.20
2023-03-17T20:19:16.023Z,26.60
2023-03-17T20:21:45.476Z,23.95
2023-03-17T20:24:14.834Z,21.50
2023-03-17T20:26:44.812Z,20.65
2023-03-17T20:29:14.496Z,20.15
2023-03-17T20:31:44.252Z,26.63
2023-03-17T20:34:13.777Z,17.45
2023-03-17T20:36:44.825Z,21.77
2023-03-17T20:39:19.664Z,23.42
2023-03-17T20:41:49.508Z,20.13
2023-03-17T20:44:19.395Z,20.55
2023-03-17T20:46:48.867Z,23.35
2023-03-17T20:49:18.013Z,18.27
2023-03-17T20:51:48.800Z,21.63
2023-03-17T20:54:17.975Z,21.95
2023-03-17T20:56:48.942Z,20.30
2023-03-17T20:59:18.075Z,22.40
2023-03-17T21:01:47.697Z,22.63
2023-03-17T21:04:17.724Z,26.65
2023-03-17T21:11:47.981Z,20.65
2023-03-17T21:16:47.344Z,21.40
2023-03-17T21:19:17.569Z,19.48
2023-03-17T21:21:48.395Z,25.73
2023-03-17T21:24:27.471Z,18.75
2023-03-17T21:26:56.811Z,22.30
2023-03-17T21:29:25.854Z,27.98
2023-03-17T21:31:56.865Z,23.15
2023-03-17T21:34:26.745Z,24.95
2023-03-17T21:36:58.331Z,20.73
2023-03-17T21:39:29.731Z,26.23
2023-03-17T21:42:00.904Z,27.38
2023-03-17T21:44:32.378Z,21.02
2023-03-17T21:47:03.093Z,22.58
2023-03-17T21:49:32.246Z,23.23
2023-03-17T21:52:03.014Z,28.53
2023-03-17T21:54:32.083Z,25.60
2023-03-17T21:57:01.764Z,29.77
2023-03-17T21:59:34.265Z,23.88
2023-03-17T22:02:03.714Z,28.73
2023-03-17T22:04:32.740Z,25.73
2023-03-17T22:07:04.457Z,23.10
2023-03-17T22:09:34.015Z,24.45
2023-03-17T22:12:04.329Z,23.25
2023-03-17T22:14:35.532Z,29.05
2023-03-17T22:17:06.383Z,22.80
2023-03-17T22:19:35.903Z,20.65
2023-03-17T22:22:06.789Z,25.33
2023-03-17T22:24:36.368Z,22.98
2023-03-17T22:27:05.911Z,23.17
2023-03-17T22:29:35.466Z,22.52
2023-03-17T22:32:05.611Z,23.88
2023-03-17T22:34:34.718Z,19.70
2023-03-17T22:37:05.766Z,23.60
2023-03-17T22:39:35.804Z,23.45
2023-03-17T22:44:34.095Z,21.00
2023-03-17T22:47:03.549Z,23.88
2023-03-17T22:49:32.568Z,19.42
2023-03-17T22:52:01.920Z,22.87
2023-03-17T22:54:32.288Z,20.90
2023-03-17T22:57:01.607Z,20.83
2023-03-17T22:59:30.612Z,18.60
2023-03-17T23:02:00.157Z,25.38
2023-03-17T23:04:29.256Z,22.05
2023-03-17T23:06:59.002Z,24.45
2023-03-17T23:09:28.154Z,21.30
2023-03-17T23:11:59.592Z,25.23
2023-03-17T23:14:28.689Z,21.63
2023-03-17T23:16:57.996Z,35.15
2023-03-17T23:19:27.423Z,25.15
2023-03-17T23:21:57.260Z,28.63
2023-03-17T23:24:26.285Z,23.42
2023-03-17T23:26:57.122Z,22.08
2023-03-17T23:29:27.690Z,23.00
2023-03-17T23:31:57.278Z,23.10
2023-03-17T23:34:26.543Z,25.58
2023-03-17T23:36:56.030Z,23.42
2023-03-17T23:39:25.576Z,23.25
2023-03-17T23:41:55.447Z,19.88
2023-03-17T23:44:25.958Z,18.80
2023-03-17T23:46:55.339Z,20.02
2023-03-17T23:49:24.365Z,20.17
2023-03-17T23:51:54.502Z,20.77
2023-03-17T23:54:24.082Z,18.25
2023-03-17T23:56:54.204Z,20.60
2023-03-17T23:59:24.649Z,20.20
